Ventura — ZCDT2 — position and weather

sailwx.info

Track history (hours):
 
Tides and Currents Weather Stations Pressure Air Temp Water Temp Dewpoint Dewpoint Depression Visibility Wind Speed Wind Dir Waves Ship Positions

Ventura

Last reported at 2016-Jul-28 16:00 UTC. Time now 2016-Jul-29 12:02 UTC.
Position N 36°48' E 017°18'.

Length 288 m.

Type: Passenger vessel. MMSI: 310562000.

Wind from 300 at 10 knots

Waves 0.5 meters (2 feet), 5 second period

Air temperature 25.5 ° C
Visibility: greater than 10.8 NM
Dewpoint 18.8 ° C
Water temperature 26.3 ° C

Date/timePositionNaut miles runAvg speedWind from/ knotsBaromVisibWave heightAir tempDewpointWater temp
2016-Jul-28 16:00N 36°48' E 017°18'4112.0 300 / 10 10.8 0.525.518.826.3
2016-Jul-28 12:33N 36°40' E 016°28'1615.3
2016-Jul-28 11:30N 36°36' E 016°08'6015.0
2016-Jul-28 07:31N 36°21' E 014°56'1415.0
2016-Jul-28 06:34N 36°27' E 014°40'1515.2
2016-Jul-28 05:33N 36°33' E 014°23'1615.6
2016-Jul-28 04:33N 36°39' E 014°05'1615.9
2016-Jul-28 03:33N 36°45' E 013°46'1716.4
2016-Jul-28 02:31N 36°52' E 013°27'1616.3
2016-Jul-28 01:33N 36°58' E 013°09'1615.7
2016-Jul-28 00:33N 37°04' E 012°51'1515.3
2016-Jul-27 23:33N 37°11' E 012°34'1615.5
2016-Jul-27 22:32N 37°21' E 012°18'1515.2
2016-Jul-27 21:33N 37°30' E 012°03'1615.8
2016-Jul-27 20:32N 37°39' E 011°46'3215.6
2016-Jul-27 18:31N 37°58' E 011°14'1515.3
2016-Jul-27 17:33N 38°03' E 010°57'1615.8
2016-Jul-27 16:32N 38°05' E 010°37'1715.4
2016-Jul-27 15:27N 38°08' E 010°16'1415.3
2016-Jul-27 14:32N 38°11' E 009°58'1615.3
2016-Jul-27 13:31N 38°14' E 009°39'1515.1
2016-Jul-27 12:33N 38°16' E 009°20'23615.5
2016-Jul-26 21:21N 38°59' E 004°24'1215.3
2016-Jul-26 20:33N 39°01' E 004°08'1615.2
2016-Jul-26 19:31N 39°04' E 003°48'1515.5
2016-Jul-26 18:33N 39°06' E 003°29'1515.2
2016-Jul-26 17:33N 39°10' E 003°11'814.8
2016-Jul-26 17:00N 39°12' E 003°00'817.9 200 / 5 10.8 0.527.519.925.8
2016-Jul-26 16:33N 39°17' E 002°52'1414.1
2016-Jul-26 15:33N 39°26' E 002°38'7 1.3
2016-Jul-26 10:15N 39°33' E 002°38'0 0.0
2016-Jul-26 09:33N 39°33' E 002°38'0 0.0
2016-Jul-26 08:33N 39°33' E 002°38'0 0.0
2016-Jul-26 07:33N 39°33' E 002°38'0 0.0
2016-Jul-26 06:33N 39°33' E 002°38'2 2.2
2016-Jul-26 05:33N 39°31' E 002°38'1918.8
2016-Jul-26 04:33N 39°13' E 002°29'2020.4
2016-Jul-26 03:33N 38°59' E 002°10'2020.5
2016-Jul-26 02:33N 38°44' E 001°52'2121.0
2016-Jul-26 01:33N 38°29' E 001°33'2120.6
2016-Jul-26 00:33N 38°16' E 001°12'2121.0
2016-Jul-25 23:33N 38°04' E 000°50'2221.3
2016-Jul-25 22:33N 37°52' E 000°28'2120.8
2016-Jul-25 21:33N 37°40' E 000°07'2120.8
2016-Jul-25 20:33N 37°28' W 000°15'2020.4
2016-Jul-25 19:32N 37°16' W 000°36'2020.6
2016-Jul-25 18:33N 37°04' W 000°57'3155.5
2016-Jul-25 18:00N 36°42' W 001°24'1226.5 030 / 13 10.8 2.024.320.824.3
2016-Jul-25 17:33N 36°52' W 001°18'19519.5
2016-Jul-25 07:31N 36°01' W 005°12'3818.9
2016-Jul-25 05:31N 35°53' W 005°58'1919.1
2016-Jul-25 04:30N 35°55' W 006°21'1818.7
2016-Jul-25 03:33N 35°60' W 006°43'8519.6
2016-Jul-24 23:14N 36°21' W 008°24'1420.2
2016-Jul-24 22:33N 36°25' W 008°40'611.1
2016-Jul-24 22:00N 36°24' W 008°48'1534.1 020 / 221014.710.8 2.022.018.920.8
2016-Jul-24 21:33N 36°31' W 009°04'1918.6
2016-Jul-24 20:33N 36°40' W 009°24'1918.6
2016-Jul-24 19:33N 36°57' W 009°36'1919.0
2016-Jul-24 18:33N 37°15' W 009°42'1918.8
2016-Jul-24 17:33N 37°33' W 009°47'1919.1
2016-Jul-24 16:33N 37°52' W 009°52'1919.2
2016-Jul-24 15:33N 38°10' W 009°58'2019.6
2016-Jul-24 14:33N 38°29' W 010°05'2019.6
2016-Jul-24 13:33N 38°49' W 010°08'2020.2
2016-Jul-24 12:34N 39°09' W 010°07'2020.3
2016-Jul-24 11:33N 39°29' W 010°07'2620.2
2016-Jul-24 10:16N 39°55' W 010°08'4220.0
2016-Jul-24 08:10N 40°38' W 010°08'27119.1
2016-Jul-23 18:00N 45°00' W 008°36'18621.3 340 / 10 10.8 1.0
2016-Jul-23 09:15N 47°38' W 006°15'1621.9
2016-Jul-23 08:30N 47°52' W 006°03'2221.2
2016-Jul-23 07:29N 48°10' W 005°44'1019.8
2016-Jul-23 07:00N 48°18' W 005°36'920.5 220 / 61021.827.0 17.512.117.8
2016-Jul-23 06:33N 48°26' W 005°29'3517.4
2016-Jul-23 04:33N 48°51' W 004°53'1918.7
2016-Jul-23 03:33N 49°03' W 004°32'2120.6
2016-Jul-23 02:32N 49°17' W 004°08'2621.7
2016-Jul-23 01:20N 49°34' W 003°38'1721.3
2016-Jul-23 00:33N 49°46' W 003°19'2019.9
2016-Jul-22 23:33N 49°58' W 002°54'1817.9
2016-Jul-22 22:33N 50°05' W 002°29'1616.5
2016-Jul-22 21:33N 50°11' W 002°05'1616.3
2016-Jul-22 20:33N 50°19' W 001°42'1717.1
2016-Jul-22 19:32N 50°27' W 001°19'1717.0
2016-Jul-22 18:33N 50°38' W 000°59'1312.9
2016-Jul-22 17:33N 50°46' W 001°15'9 9.3
2016-Jul-22 16:33N 50°53' W 001°24'0 0.1
2016-Jul-22 15:31N 50°53' W 001°24'0 0.0
2016-Jul-22 14:31N 50°53' W 001°24'0 0.0
2016-Jul-22 13:31N 50°53' W 001°24'0 0.0
2016-Jul-22 12:31N 50°53' W 001°24'0 0.0
2016-Jul-22 11:31N 50°53' W 001°24'0 0.0
2016-Jul-22 10:31N 50°53' W 001°24'0 0.0
2016-Jul-22 09:31N 50°53' W 001°24'0 0.0
2016-Jul-22 08:31N 50°53' W 001°24'0 0.0
2016-Jul-22 07:31N 50°53' W 001°24'4 1.3
2016-Jul-22 04:33N 50°51' W 001°20'1111.0
2016-Jul-22 03:33N 50°45' W 001°05'1111.5
2016-Jul-22 02:34N 50°34' W 001°02'1414.3
2016-Jul-22 01:34N 50°28' W 001°22'1515.0
2016-Jul-22 00:34N 50°22' W 001°44'1515.1
2016-Jul-21 23:33N 50°10' W 001°58'1918.1
2016-Jul-21 22:32N 49°58' W 002°19'1818.8
2016-Jul-21 21:34N 49°51' W 002°46'1918.7
2016-Jul-21 20:33N 49°41' W 003°10'1918.5
2016-Jul-21 19:33N 49°30' W 003°34'1918.6
2016-Jul-21 18:31N 49°19' W 003°58'3523.2
2016-Jul-21 17:00N 48°54' W 004°36'612.8 260 / 3 10.8 0.5
2016-Jul-21 16:34N 48°57' W 004°43'1919.2
2016-Jul-21 15:34N 48°45' W 005°05'2019.6
2016-Jul-21 14:33N 48°30' W 005°25'3918.7
2016-Jul-21 12:29N 47°57' W 005°54'55318.4
2016-Jul-20 06:29N 39°11' W 009°51'1819.3
2016-Jul-20 05:33N 38°53' W 009°51'1919.3
2016-Jul-20 04:33N 38°34' W 009°48'2019.6
2016-Jul-20 03:33N 38°15' W 009°42'1919.4
2016-Jul-20 02:33N 37°56' W 009°37'1919.1
2016-Jul-20 01:33N 37°38' W 009°30'1818.5
2016-Jul-20 00:33N 37°20' W 009°26'1918.8
2016-Jul-19 23:33N 37°01' W 009°21'1818.1
2016-Jul-19 22:33N 36°46' W 009°09'1817.8
2016-Jul-19 21:33N 36°42' W 008°48'1919.1
2016-Jul-19 20:33N 36°42' W 008°24'1919.5
2016-Jul-19 19:33N 36°41' W 007°60'1348525.9
2016-Jul-19 17:00N 36°36' W 036°00'1433115.1 27.0 3.0
2016-Jul-19 04:33N 36°14' W 006°20'18419.7
2016-Jul-18 19:10N 36°26' W 002°31'1420.9
2016-Jul-18 18:29N 36°26' W 002°14'2820.7
2016-Jul-18 17:07N 36°47' W 001°49'647.0
2016-Jul-18 17:00N 36°48' W 001°42'818.2 050 / 211016.627.0 26.518.223.8
2016-Jul-18 16:33N 36°56' W 001°39'  
Track history (hours):
 
Tides and Currents Weather Stations Pressure Air Temp Water Temp Dewpoint Dewpoint Depression Visibility Wind Speed Wind Dir Waves Ship Positions

Ventura

Last reported at 2016-Jul-28 16:00 UTC. Time now 2016-Jul-29 12:02 UTC.
Position N 36°48' E 017°18'.

Length 288 m.

Type: Passenger vessel. MMSI: 310562000.

Wind from 300 at 10 knots

Waves 0.5 meters (2 feet), 5 second period

Air temperature 25.5 ° C
Visibility: greater than 10.8 NM
Dewpoint 18.8 ° C
Water temperature 26.3 ° C

Date/timePositionNaut miles runAvg speedWind from/ knotsBaromVisibWave heightAir tempDewpointWater temp
2016-Jul-28 16:00N 36°48' E 017°18'4112.0 300 / 10 10.8 0.525.518.826.3
2016-Jul-28 12:33N 36°40' E 016°28'1615.3
2016-Jul-28 11:30N 36°36' E 016°08'6015.0
2016-Jul-28 07:31N 36°21' E 014°56'1415.0
2016-Jul-28 06:34N 36°27' E 014°40'1515.2
2016-Jul-28 05:33N 36°33' E 014°23'1615.6
2016-Jul-28 04:33N 36°39' E 014°05'1615.9
2016-Jul-28 03:33N 36°45' E 013°46'1716.4
2016-Jul-28 02:31N 36°52' E 013°27'1616.3
2016-Jul-28 01:33N 36°58' E 013°09'1615.7
2016-Jul-28 00:33N 37°04' E 012°51'1515.3
2016-Jul-27 23:33N 37°11' E 012°34'1615.5
2016-Jul-27 22:32N 37°21' E 012°18'1515.2
2016-Jul-27 21:33N 37°30' E 012°03'1615.8
2016-Jul-27 20:32N 37°39' E 011°46'3215.6
2016-Jul-27 18:31N 37°58' E 011°14'1515.3
2016-Jul-27 17:33N 38°03' E 010°57'1615.8
2016-Jul-27 16:32N 38°05' E 010°37'1715.4
2016-Jul-27 15:27N 38°08' E 010°16'1415.3
2016-Jul-27 14:32N 38°11' E 009°58'1615.3
2016-Jul-27 13:31N 38°14' E 009°39'1515.1
2016-Jul-27 12:33N 38°16' E 009°20'23615.5
2016-Jul-26 21:21N 38°59' E 004°24'1215.3
2016-Jul-26 20:33N 39°01' E 004°08'1615.2
2016-Jul-26 19:31N 39°04' E 003°48'1515.5
2016-Jul-26 18:33N 39°06' E 003°29'1515.2
2016-Jul-26 17:33N 39°10' E 003°11'814.8
2016-Jul-26 17:00N 39°12' E 003°00'817.9 200 / 5 10.8 0.527.519.925.8
2016-Jul-26 16:33N 39°17' E 002°52'1414.1
2016-Jul-26 15:33N 39°26' E 002°38'7 1.3
2016-Jul-26 10:15N 39°33' E 002°38'0 0.0
2016-Jul-26 09:33N 39°33' E 002°38'0 0.0
2016-Jul-26 08:33N 39°33' E 002°38'0 0.0
2016-Jul-26 07:33N 39°33' E 002°38'0 0.0
2016-Jul-26 06:33N 39°33' E 002°38'2 2.2
2016-Jul-26 05:33N 39°31' E 002°38'1918.8
2016-Jul-26 04:33N 39°13' E 002°29'2020.4
2016-Jul-26 03:33N 38°59' E 002°10'2020.5
2016-Jul-26 02:33N 38°44' E 001°52'2121.0
2016-Jul-26 01:33N 38°29' E 001°33'2120.6
2016-Jul-26 00:33N 38°16' E 001°12'2121.0
2016-Jul-25 23:33N 38°04' E 000°50'2221.3
2016-Jul-25 22:33N 37°52' E 000°28'2120.8
2016-Jul-25 21:33N 37°40' E 000°07'2120.8
2016-Jul-25 20:33N 37°28' W 000°15'2020.4
2016-Jul-25 19:32N 37°16' W 000°36'2020.6
2016-Jul-25 18:33N 37°04' W 000°57'3155.5
2016-Jul-25 18:00N 36°42' W 001°24'1226.5 030 / 13 10.8 2.024.320.824.3
2016-Jul-25 17:33N 36°52' W 001°18'19519.5
2016-Jul-25 07:31N 36°01' W 005°12'3818.9
2016-Jul-25 05:31N 35°53' W 005°58'1919.1
2016-Jul-25 04:30N 35°55' W 006°21'1818.7
2016-Jul-25 03:33N 35°60' W 006°43'8519.6
2016-Jul-24 23:14N 36°21' W 008°24'1420.2
2016-Jul-24 22:33N 36°25' W 008°40'611.1
2016-Jul-24 22:00N 36°24' W 008°48'1534.1 020 / 221014.710.8 2.022.018.920.8
2016-Jul-24 21:33N 36°31' W 009°04'1918.6
2016-Jul-24 20:33N 36°40' W 009°24'1918.6
2016-Jul-24 19:33N 36°57' W 009°36'1919.0
2016-Jul-24 18:33N 37°15' W 009°42'1918.8
2016-Jul-24 17:33N 37°33' W 009°47'1919.1
2016-Jul-24 16:33N 37°52' W 009°52'1919.2
2016-Jul-24 15:33N 38°10' W 009°58'2019.6
2016-Jul-24 14:33N 38°29' W 010°05'2019.6
2016-Jul-24 13:33N 38°49' W 010°08'2020.2
2016-Jul-24 12:34N 39°09' W 010°07'2020.3
2016-Jul-24 11:33N 39°29' W 010°07'2620.2
2016-Jul-24 10:16N 39°55' W 010°08'4220.0
2016-Jul-24 08:10N 40°38' W 010°08'27119.1
2016-Jul-23 18:00N 45°00' W 008°36'18621.3 340 / 10 10.8 1.0
2016-Jul-23 09:15N 47°38' W 006°15'1621.9
2016-Jul-23 08:30N 47°52' W 006°03'2221.2
2016-Jul-23 07:29N 48°10' W 005°44'1019.8
2016-Jul-23 07:00N 48°18' W 005°36'920.5 220 / 61021.827.0 17.512.117.8
2016-Jul-23 06:33N 48°26' W 005°29'3517.4
2016-Jul-23 04:33N 48°51' W 004°53'1918.7
2016-Jul-23 03:33N 49°03' W 004°32'2120.6
2016-Jul-23 02:32N 49°17' W 004°08'2621.7
2016-Jul-23 01:20N 49°34' W 003°38'1721.3
2016-Jul-23 00:33N 49°46' W 003°19'2019.9
2016-Jul-22 23:33N 49°58' W 002°54'1817.9
2016-Jul-22 22:33N 50°05' W 002°29'1616.5
2016-Jul-22 21:33N 50°11' W 002°05'1616.3
2016-Jul-22 20:33N 50°19' W 001°42'1717.1
2016-Jul-22 19:32N 50°27' W 001°19'1717.0
2016-Jul-22 18:33N 50°38' W 000°59'1312.9
2016-Jul-22 17:33N 50°46' W 001°15'9 9.3
2016-Jul-22 16:33N 50°53' W 001°24'0 0.1
2016-Jul-22 15:31N 50°53' W 001°24'0 0.0
2016-Jul-22 14:31N 50°53' W 001°24'0 0.0
2016-Jul-22 13:31N 50°53' W 001°24'0 0.0
2016-Jul-22 12:31N 50°53' W 001°24'0 0.0
2016-Jul-22 11:31N 50°53' W 001°24'0 0.0
2016-Jul-22 10:31N 50°53' W 001°24'0 0.0
2016-Jul-22 09:31N 50°53' W 001°24'0 0.0
2016-Jul-22 08:31N 50°53' W 001°24'0 0.0
2016-Jul-22 07:31N 50°53' W 001°24'4 1.3
2016-Jul-22 04:33N 50°51' W 001°20'1111.0
2016-Jul-22 03:33N 50°45' W 001°05'1111.5
2016-Jul-22 02:34N 50°34' W 001°02'1414.3
2016-Jul-22 01:34N 50°28' W 001°22'1515.0
2016-Jul-22 00:34N 50°22' W 001°44'1515.1
2016-Jul-21 23:33N 50°10' W 001°58'1918.1
2016-Jul-21 22:32N 49°58' W 002°19'1818.8
2016-Jul-21 21:34N 49°51' W 002°46'1918.7
2016-Jul-21 20:33N 49°41' W 003°10'1918.5
2016-Jul-21 19:33N 49°30' W 003°34'1918.6
2016-Jul-21 18:31N 49°19' W 003°58'3523.2
2016-Jul-21 17:00N 48°54' W 004°36'612.8 260 / 3 10.8 0.5
2016-Jul-21 16:34N 48°57' W 004°43'1919.2
2016-Jul-21 15:34N 48°45' W 005°05'2019.6
2016-Jul-21 14:33N 48°30' W 005°25'3918.7
2016-Jul-21 12:29N 47°57' W 005°54'55318.4
2016-Jul-20 06:29N 39°11' W 009°51'1819.3
2016-Jul-20 05:33N 38°53' W 009°51'1919.3
2016-Jul-20 04:33N 38°34' W 009°48'2019.6
2016-Jul-20 03:33N 38°15' W 009°42'1919.4
2016-Jul-20 02:33N 37°56' W 009°37'1919.1
2016-Jul-20 01:33N 37°38' W 009°30'1818.5
2016-Jul-20 00:33N 37°20' W 009°26'1918.8
2016-Jul-19 23:33N 37°01' W 009°21'1818.1
2016-Jul-19 22:33N 36°46' W 009°09'1817.8
2016-Jul-19 21:33N 36°42' W 008°48'1919.1
2016-Jul-19 20:33N 36°42' W 008°24'1919.5
2016-Jul-19 19:33N 36°41' W 007°60'1348525.9
2016-Jul-19 17:00N 36°36' W 036°00'1433115.1 27.0 3.0
2016-Jul-19 04:33N 36°14' W 006°20'18419.7
2016-Jul-18 19:10N 36°26' W 002°31'1420.9
2016-Jul-18 18:29N 36°26' W 002°14'2820.7
2016-Jul-18 17:07N 36°47' W 001°49'647.0
2016-Jul-18 17:00N 36°48' W 001°42'818.2 050 / 211016.627.0 26.518.223.8
2016-Jul-18 16:33N 36°56' W 001°39'  

Dump ship's entire track history